Time;durP1;ratioP1;P1;durP2;ratioP2;P2;SDS_P1;SDS_P2;PMS_P1;PMS_P2;Temp;Humidity;BMP_temperature;BMP_pressure;BME280_temperature;BME280_humidity;BME280_pressure;Samples;Min_cycle;Max_cycle;Signal;HPM_P1;HPM_P2
2022/04/04 00:01:38;;;;;;;5.20;4.27;;;;;;;-0.86;100.00;94856.44;4974330;28;20192;-63
2022/04/04 00:04:23;;;;;;;7.93;4.40;;;;;;;-0.83;100.00;94860.28;4956607;28;20207;-63
2022/04/04 00:07:09;;;;;;;5.80;3.97;;;;;;;-0.92;100.00;94854.53;4949242;28;20229;-63
2022/04/04 00:09:56;;;;;;;7.23;4.70;;;;;;;-1.24;100.00;94843.84;4953897;28;20301;-63
2022/04/04 00:12:41;;;;;;;6.40;4.80;;;;;;;-1.01;100.00;94841.50;4966153;28;20623;-63
2022/04/04 00:15:27;;;;;;;6.17;5.07;;;;;;;-1.06;100.00;94841.13;4972060;28;20296;-62
2022/04/04 00:18:13;;;;;;;5.20;4.63;;;;;;;-1.07;100.00;94842.28;4969961;28;20213;-63
2022/04/04 00:21:00;;;;;;;5.50;4.93;;;;;;;-1.31;100.00;94838.47;4967634;28;20208;-63
2022/04/04 00:23:46;;;;;;;7.20;4.37;;;;;;;-1.62;100.00;94857.94;4952367;29;20205;-63
2022/04/04 00:26:32;;;;;;;5.10;4.40;;;;;;;-1.54;100.00;94827.34;4935688;29;20719;-63
2022/04/04 00:29:18;;;;;;;5.60;4.30;;;;;;;-1.48;100.00;94817.81;4946026;28;20193;-63
2022/04/04 00:32:05;;;;;;;5.37;4.80;;;;;;;-1.41;100.00;94825.84;4957602;28;20197;-62
2022/04/04 00:34:51;;;;;;;5.00;3.97;;;;;;;-1.83;100.00;94826.56;4937959;29;20197;-62
2022/04/04 00:37:39;;;;;;;5.40;4.40;;;;;;;-1.99;100.00;94828.06;4933939;28;20217;-63
2022/04/04 00:40:25;;;;;;;7.50;5.17;;;;;;;-1.79;100.00;94818.53;4963814;28;20208;-63
2022/04/04 00:43:11;;;;;;;7.03;5.17;;;;;;;-1.59;100.00;94809.75;4957940;28;20208;-63
2022/04/04 00:45:59;;;;;;;6.70;5.50;;;;;;;-2.01;100.00;94820.41;4968125;28;20540;-63
2022/04/04 00:48:46;;;;;;;6.53;4.60;;;;;;;-1.96;100.00;94816.59;4979641;28;20204;-62
2022/04/04 00:51:32;;;;;;;6.17;4.93;;;;;;;-2.19;100.00;94810.81;4952337;28;20192;-63
2022/04/04 00:54:19;;;;;;;8.10;4.73;;;;;;;-2.24;100.00;94822.63;4941968;28;20266;-63
2022/04/04 00:57:05;;;;;;;6.33;4.37;;;;;;;-2.11;100.00;94815.03;4949237;28;20271;-63
2022/04/04 00:59:51;;;;;;;6.87;5.43;;;;;;;-1.97;100.00;94807.03;4964802;28;20518;-62
2022/04/04 01:02:38;;;;;;;6.80;5.80;;;;;;;-1.97;100.00;94818.50;4951879;29;20236;-62
2022/04/04 01:05:24;;;;;;;6.97;5.03;;;;;;;-2.10;100.00;94805.84;4955996;28;20197;-62
2022/04/04 01:08:16;;;;;;;9.23;4.80;;;;;;;-2.22;100.00;94798.94;4969327;28;20314;-62
2022/04/04 01:11:02;;;;;;;5.27;4.50;;;;;;;-2.31;100.00;94798.56;4939198;28;20284;-62
2022/04/04 01:13:49;;;;;;;6.43;4.90;;;;;;;-2.33;100.00;94790.13;4967542;28;20206;-62
2022/04/04 01:16:35;;;;;;;6.87;4.97;;;;;;;-2.22;100.00;94796.28;4951072;29;20703;-64
2022/04/04 01:19:22;;;;;;;5.83;4.90;;;;;;;-2.59;100.00;94791.19;4961495;28;20224;-62
2022/04/04 01:22:09;;;;;;;6.40;5.33;;;;;;;-2.25;100.00;94789.00;4944740;29;20209;-63
2022/04/04 01:24:59;;;;;;;8.17;5.30;;;;;;;-2.53;100.00;94786.25;4955305;28;20259;-62
2022/04/04 01:27:46;;;;;;;5.87;4.90;;;;;;;-2.63;100.00;94786.97;4952653;28;20220;-62
2022/04/04 01:30:32;;;;;;;8.23;5.37;;;;;;;-2.52;100.00;94780.53;4956984;28;20197;-63
2022/04/04 01:33:18;;;;;;;5.97;4.77;;;;;;;-2.62;100.00;94785.81;4952600;28;20206;-63
2022/04/04 01:36:05;;;;;;;9.43;4.80;;;;;;;-2.57;100.00;94788.13;4937093;29;20198;-63
2022/04/04 01:38:51;;;;;;;5.17;4.40;;;;;;;-2.56;100.00;94787.75;4968000;28;20201;-62
2022/04/04 01:41:38;;;;;;;7.07;5.10;;;;;;;-2.72;100.00;94778.53;4968302;28;20635;-62
2022/04/04 01:44:24;;;;;;;7.73;5.00;;;;;;;-2.66;100.00;94782.38;4961528;28;20200;-62
2022/04/04 01:47:10;;;;;;;6.37;4.93;;;;;;;-2.78;100.00;94783.47;4974279;28;20606;-62
2022/04/04 01:49:56;;;;;;;6.33;5.00;;;;;;;-2.95;100.00;94776.13;4966425;28;20197;-62
2022/04/04 01:53:25;;;;;;;7.13;4.83;;;;;;;-2.83;100.00;94783.03;4951316;29;20197;-65
2022/04/04 01:55:47;;;;;;;5.63;5.03;;;;;;;-2.97;100.00;94773.06;4950776;29;20675;-64
2022/04/04 01:58:34;;;;;;;5.83;5.00;;;;;;;-2.98;100.00;94757.41;4956908;28;20683;-65
2022/04/04 02:01:22;;;;;;;8.50;5.40;;;;;;;-2.89;100.00;94766.63;4968614;28;20189;-65
2022/04/04 02:04:10;;;;;;;8.17;5.27;;;;;;;-2.86;100.00;94762.44;4955736;28;20729;-65
2022/04/04 02:06:56;;;;;;;8.23;5.00;;;;;;;-3.01;100.00;94764.28;4948094;28;20316;-65
2022/04/04 02:09:43;;;;;;;6.53;5.10;;;;;;;-3.04;100.00;94770.38;4960879;28;20193;-65
2022/04/04 02:12:30;;;;;;;7.63;5.07;;;;;;;-3.21;100.00;94755.03;4972928;28;20291;-65
2022/04/04 02:15:16;;;;;;;8.87;4.77;;;;;;;-3.41;100.00;94756.41;4957884;28;20193;-68
2022/04/04 02:18:02;;;;;;;8.93;5.33;;;;;;;-3.45;100.00;94760.19;4957429;28;20319;-68
2022/04/04 02:20:49;;;;;;;7.47;5.00;;;;;;;-3.54;100.00;94757.06;4936512;29;20221;-67
2022/04/04 02:23:35;;;;;;;5.40;4.90;;;;;;;-3.47;100.00;94765.91;4938106;28;20231;-68
2022/04/04 02:26:21;;;;;;;6.77;5.43;;;;;;;-3.52;100.00;94752.13;4967895;28;20825;-67
2022/04/04 02:29:07;;;;;;;4.93;4.43;;;;;;;-3.55;100.00;94761.66;4969071;28;20193;-69
2022/04/04 02:31:53;;;;;;;6.47;5.20;;;;;;;-3.50;100.00;94753.31;4950290;29;20873;-68
2022/04/04 02:34:39;;;;;;;7.77;5.40;;;;;;;-3.64;100.00;94758.53;4957505;28;20642;-67
2022/04/04 02:37:25;;;;;;;6.80;5.37;;;;;;;-3.53;100.00;94756.72;4970503;28;20221;-68
2022/04/04 02:40:11;;;;;;;6.37;5.73;;;;;;;-3.59;100.00;94760.09;4972622;28;20280;-68
2022/04/04 02:42:57;;;;;;;6.27;4.73;;;;;;;-3.47;100.00;94755.22;4959546;28;20204;-68
2022/04/04 02:45:43;;;;;;;5.90;4.60;;;;;;;-3.66;100.00;94763.47;4961984;28;20662;-69
2022/04/04 02:48:29;;;;;;;5.90;5.13;;;;;;;-3.53;100.00;94756.72;4954657;28;20690;-69
2022/04/04 02:51:15;;;;;;;6.00;5.03;;;;;;;-3.67;100.00;94767.28;4946297;28;20726;-67
2022/04/04 02:54:01;;;;;;;5.63;5.07;;;;;;;-3.76;100.00;94750.81;4945794;28;20220;-68
2022/04/04 02:56:47;;;;;;;5.53;4.90;;;;;;;-3.72;100.00;94759.63;4971972;28;20570;-69
2022/04/04 02:59:33;;;;;;;6.07;5.47;;;;;;;-3.56;100.00;94754.78;4958750;28;20702;-67
2022/04/04 03:02:19;;;;;;;9.73;5.63;;;;;;;-3.49;100.00;94746.81;4972094;28;20215;-68
2022/04/04 03:05:05;;;;;;;10.43;5.90;;;;;;;-3.42;100.00;94749.53;4972469;28;20193;-68
2022/04/04 03:07:51;;;;;;;7.20;5.10;;;;;;;-3.39;100.00;94734.69;4964224;28;20222;-68
2022/04/04 03:10:38;;;;;;;6.43;5.47;;;;;;;-4.11;100.00;94735.31;4969363;28;20521;-68
2022/04/04 03:13:24;;;;;;;7.60;5.63;;;;;;;-3.97;100.00;94732.75;4980484;28;20283;-68
2022/04/04 03:16:10;;;;;;;6.10;5.50;;;;;;;-3.77;100.00;94733.28;4958036;28;20701;-68
2022/04/04 03:18:58;;;;;;;8.43;5.93;;;;;;;-3.82;100.00;94730.97;4971624;28;20205;-68
2022/04/04 03:21:44;;;;;;;6.27;5.47;;;;;;;-3.80;100.00;94732.13;4943142;29;20202;-68
2022/04/04 03:24:30;;;;;;;6.33;5.43;;;;;;;-3.88;100.00;94727.88;4939572;29;20228;-68
2022/04/04 03:27:16;;;;;;;6.80;4.63;;;;;;;-3.86;100.00;94728.28;4942101;28;20229;-68
2022/04/04 03:30:04;;;;;;;6.73;5.60;;;;;;;-3.75;100.00;94729.09;4958411;28;20271;-69
2022/04/04 03:32:50;;;;;;;6.57;5.40;;;;;;;-3.88;100.00;94727.09;4972510;28;20253;-68
2022/04/04 03:35:36;;;;;;;8.43;5.20;;;;;;;-3.99;100.00;94732.34;4944834;28;20201;-68
2022/04/04 03:38:22;;;;;;;5.97;5.03;;;;;;;-4.05;100.00;94723.16;4971195;28;20224;-68
2022/04/04 03:41:09;;;;;;;7.10;5.90;;;;;;;-4.11;100.00;94732.63;4968752;28;20631;-68
2022/04/04 03:43:55;;;;;;;6.93;6.07;;;;;;;-4.31;100.00;94723.28;4960554;28;20212;-67
2022/04/04 03:46:41;;;;;;;6.63;5.20;;;;;;;-4.33;100.00;94712.25;4971129;28;20225;-63
2022/04/04 03:49:27;;;;;;;7.60;5.37;;;;;;;-4.39;100.00;94728.91;4956852;28;20636;-65
2022/04/04 03:52:14;;;;;;;6.57;5.30;;;;;;;-4.33;100.00;94725.59;4970353;28;20193;-66
2022/04/04 03:55:01;;;;;;;6.23;5.07;;;;;;;-4.38;100.00;94723.25;4956489;28;20204;-65
2022/04/04 03:57:48;;;;;;;7.87;5.70;;;;;;;-4.24;100.00;94725.28;4970872;28;20245;-65
2022/04/04 04:00:35;;;;;;;7.17;5.53;;;;;;;-4.37;100.00;94727.44;4965729;28;20260;-66
2022/04/04 04:03:20;;;;;;;6.27;5.17;;;;;;;-4.19;100.00;94724.94;4953174;28;20220;-66
2022/04/04 04:06:13;;;;;;;7.67;5.93;;;;;;;-4.12;100.00;94731.09;4957984;28;20594;-66
2022/04/04 04:08:59;;;;;;;10.40;5.83;;;;;;;-4.47;100.00;94722.00;4952371;28;20208;-65
2022/04/04 04:11:45;;;;;;;7.47;5.33;;;;;;;-4.46;100.00;94734.22;4965508;28;20604;-66
2022/04/04 04:14:31;;;;;;;8.50;6.13;;;;;;;-4.53;100.00;94734.88;4976015;28;20615;-65
2022/04/04 04:17:24;;;;;;;7.00;5.77;;;;;;;-4.49;100.00;94718.94;4982013;28;20304;-65
2022/04/04 04:20:20;;;;;;;8.03;5.87;;;;;;;-4.45;100.00;94725.84;4965277;28;20663;-65
2022/04/04 04:23:08;;;;;;;8.93;5.87;;;;;;;-4.25;100.00;94729.84;4945720;28;20200;-66
2022/04/04 04:25:54;;;;;;;7.53;5.80;;;;;;;-4.31;100.00;94723.28;4951677;29;20236;-66
2022/04/04 04:28:41;;;;;;;10.30;5.40;;;;;;;-4.55;100.00;94726.50;4954781;28;20221;-66
2022/04/04 04:31:27;;;;;;;7.43;5.83;;;;;;;-4.67;100.00;94718.78;4961839;28;20193;-65
2022/04/04 04:34:13;;;;;;;6.43;5.13;;;;;;;-4.58;100.00;94723.81;4970426;28;20201;-66
2022/04/04 04:37:00;;;;;;;5.80;4.83;;;;;;;-4.45;100.00;94722.41;4970128;28;20247;-66
2022/04/04 04:39:46;;;;;;;7.63;5.87;;;;;;;-4.36;100.00;94726.28;4970584;28;20193;-67
2022/04/04 04:42:33;;;;;;;8.00;5.53;;;;;;;-4.36;100.00;94723.63;4951673;28;20572;-66
2022/04/04 04:45:19;;;;;;;5.73;5.10;;;;;;;-4.33;100.00;94712.25;4979568;28;20216;-66
2022/04/04 04:48:05;;;;;;;9.00;5.37;;;;;;;-4.27;100.00;94720.66;4984563;28;20224;-66
2022/04/04 04:50:52;;;;;;;6.70;5.07;;;;;;;-4.48;100.00;94726.56;4932528;29;20651;-66
2022/04/04 04:53:38;;;;;;;6.50;5.63;;;;;;;-4.24;100.00;94717.28;4955315;28;20208;-65
2022/04/04 04:56:25;;;;;;;7.20;5.63;;;;;;;-4.32;100.00;94713.78;4948377;28;20205;-66
2022/04/04 04:59:11;;;;;;;9.07;5.77;;;;;;;-4.37;100.00;94732.00;4965255;28;20212;-66
2022/04/04 05:01:57;;;;;;;7.33;5.13;;;;;;;-4.45;100.00;94733.06;4951935;29;20264;-66
2022/04/04 05:04:43;;;;;;;9.60;5.60;;;;;;;-4.39;100.00;94718.25;4947978;28;20224;-66
2022/04/04 05:07:28;;;;;;;7.83;5.67;;;;;;;-4.38;100.00;94720.59;4952606;28;20248;-66
2022/04/04 05:10:14;;;;;;;6.13;5.53;;;;;;;-4.31;100.00;94723.28;4951492;28;20307;-66
2022/04/04 05:13:00;;;;;;;8.17;5.63;;;;;;;-4.33;100.00;94722.16;4950439;28;20281;-66
2022/04/04 05:15:46;;;;;;;5.53;5.00;;;;;;;-4.26;100.00;94722.22;4954127;28;20281;-66
2022/04/04 05:18:32;;;;;;;7.90;5.53;;;;;;;-4.05;100.00;94738.38;4963949;28;20200;-66
2022/04/04 05:21:17;;;;;;;8.13;5.43;;;;;;;-4.48;100.00;94726.56;4940802;28;20201;-66
2022/04/04 05:24:05;;;;;;;7.70;5.30;;;;;;;-4.25;100.00;94729.06;4970203;28;20296;-66
2022/04/04 05:26:51;;;;;;;6.67;5.17;;;;;;;-4.03;100.00;94722.78;4960445;28;20686;-66
2022/04/04 05:29:37;;;;;;;7.97;5.80;;;;;;;-4.24;100.00;94727.94;4969073;28;20207;-66
2022/04/04 05:32:23;;;;;;;7.00;5.70;;;;;;;-4.02;100.00;94729.66;4967274;28;20192;-66
2022/04/04 05:35:11;;;;;;;7.07;5.67;;;;;;;-3.93;100.00;94733.53;4962335;28;20582;-67
2022/04/04 05:37:57;;;;;;;6.63;5.30;;;;;;;-4.06;100.00;94740.31;4955115;28;20311;-67
2022/04/04 05:40:42;;;;;;;8.07;5.00;;;;;;;-3.83;100.00;94737.41;4967779;28;20705;-67
2022/04/04 05:43:28;;;;;;;15.53;6.13;;;;;;;-3.73;100.00;94740.19;4961330;28;20239;-67
2022/04/04 05:46:17;;;;;;;8.27;6.53;;;;;;;-3.77;100.00;94738.63;4971357;28;20573;-67
2022/04/04 05:49:03;;;;;;;13.40;6.53;;;;;;;-3.44;100.00;94743.03;4965054;28;20248;-63
2022/04/04 05:51:49;;;;;;;7.73;5.73;;;;;;;-3.48;100.00;94736.91;4963931;28;20276;-63
2022/04/04 05:54:53;;;;;;;9.07;5.50;;;;;;;-3.34;100.00;94748.44;4935590;29;20497;-63
2022/04/04 05:57:39;;;;;;;8.70;5.87;;;;;;;-3.40;100.00;94738.47;4935962;29;20232;-63
2022/04/04 06:00:25;;;;;;;7.37;5.83;;;;;;;-3.30;100.00;94749.22;4960567;28;20243;-64
2022/04/04 06:03:11;;;;;;;7.03;5.43;;;;;;;-3.16;100.00;94743.22;4966226;28;20213;-63
2022/04/04 06:05:57;;;;;;;9.27;7.17;;;;;;;-2.98;100.00;94741.38;4968897;28;20200;-63
2022/04/04 06:08:43;;;;;;;10.57;8.37;;;;;;;-2.88;100.00;94741.44;4955322;28;20286;-63
2022/04/04 06:11:29;;;;;;;8.63;6.87;;;;;;;-2.96;100.00;94736.44;4965380;28;20321;-63
2022/04/04 06:14:15;;;;;;;9.33;7.07;;;;;;;-2.57;100.00;94745.38;4953146;28;20197;-63
2022/04/04 06:17:05;;;;;;;8.50;5.20;;;;;;;-2.85;100.00;94745.28;4940376;28;20274;-64
2022/04/04 06:19:51;;;;;;;11.67;5.23;;;;;;;-2.50;100.00;94748.06;4971806;28;20244;-63
2022/04/04 06:22:39;;;;;;;7.43;5.30;;;;;;;-2.22;100.00;94742.78;4952777;28;20268;-63
2022/04/04 06:25:26;;;;;;;9.03;5.50;;;;;;;-1.96;100.00;94741.66;4953947;28;20670;-62
2022/04/04 06:28:12;;;;;;;6.87;4.90;;;;;;;-2.02;100.00;94743.22;4957811;28;20714;-64
2022/04/04 06:30:58;;;;;;;7.23;5.50;;;;;;;-2.00;100.00;94752.38;4972653;28;20231;-64
2022/04/04 06:33:44;;;;;;;7.47;5.40;;;;;;;-1.77;100.00;94760.81;4972881;28;20275;-68
2022/04/04 06:36:31;;;;;;;6.30;4.90;;;;;;;-1.53;100.00;94754.66;4943264;28;20296;-66
2022/04/04 06:39:18;;;;;;;6.17;4.63;;;;;;;-1.06;96.15;94753.47;4958694;28;20664;-68
2022/04/04 06:42:04;;;;;;;10.33;5.17;;;;;;;-0.64;93.22;94752.56;4959678;28;20200;-63
2022/04/04 06:44:50;;;;;;;5.83;4.47;;;;;;;-0.10;91.52;94755.38;4958815;28;20542;-66
2022/04/04 06:47:37;;;;;;;8.00;4.27;;;;;;;0.28;88.02;94745.56;4954460;28;20224;-66
2022/04/04 06:50:23;;;;;;;6.37;4.07;;;;;;;0.32;80.22;94751.66;4948005;28;20197;-68
2022/04/04 06:53:10;;;;;;;4.70;4.00;;;;;;;0.52;78.40;94738.44;4949262;28;20268;-69
2022/04/04 06:55:55;;;;;;;6.80;4.37;;;;;;;0.76;74.32;94748.22;4956803;28;20267;-69
2022/04/04 06:58:41;;;;;;;5.97;3.43;;;;;;;0.92;72.97;94746.53;4962802;28;20298;-67
2022/04/04 07:01:27;;;;;;;7.57;3.70;;;;;;;1.07;73.88;94739.84;4947679;28;20542;-68
2022/04/04 07:04:13;;;;;;;5.23;3.10;;;;;;;1.27;69.65;94744.63;4956986;28;20197;-69
2022/04/04 07:06:59;;;;;;;4.60;3.40;;;;;;;1.49;66.20;94743.22;4967770;28;20228;-69
2022/04/04 07:09:45;;;;;;;4.17;3.73;;;;;;;1.19;66.27;94736.66;4952787;28;20267;-68
2022/04/04 07:12:33;;;;;;;4.10;3.20;;;;;;;1.38;66.66;94729.91;4961435;28;20565;-68
2022/04/04 07:15:19;;;;;;;3.70;2.77;;;;;;;1.76;67.75;94728.66;4965642;28;20193;-66
2022/04/04 07:18:05;;;;;;;3.47;2.70;;;;;;;1.61;63.60;94723.88;4949888;28;20233;-65
2022/04/04 07:20:51;;;;;;;3.87;3.07;;;;;;;1.70;66.31;94722.19;4951087;28;20224;-66
2022/04/04 07:23:36;;;;;;;4.83;3.93;;;;;;;1.58;64.28;94722.00;4955591;28;20204;-66
2022/04/04 07:26:23;;;;;;;6.17;3.03;;;;;;;1.79;62.52;94724.38;4969438;28;20295;-66
2022/04/04 07:29:09;;;;;;;4.07;3.00;;;;;;;2.05;59.99;94735.16;4960214;28;20193;-66
2022/04/04 07:31:55;;;;;;;6.67;2.87;;;;;;;1.91;59.71;94740.78;4957075;28;20298;-66
2022/04/04 07:34:40;;;;;;;2.80;2.57;;;;;;;2.22;59.12;94726.06;4970171;28;20197;-67
2022/04/04 07:37:26;;;;;;;3.70;2.60;;;;;;;2.38;58.25;94726.22;4960740;28;20284;-67
2022/04/04 07:40:15;;;;;;;3.60;2.70;;;;;;;2.50;58.82;94719.47;4964390;28;20202;-67
2022/04/04 07:43:01;;;;;;;6.17;2.83;;;;;;;3.19;55.52;94721.38;4938764;28;20244;-67
2022/04/04 07:45:47;;;;;;;5.67;2.27;;;;;;;3.45;53.71;94720.47;4958056;28;20181;-62
2022/04/04 07:48:33;;;;;;;5.17;2.37;;;;;;;3.30;53.84;94716.53;4962273;28;20220;-64
2022/04/04 07:51:19;;;;;;;2.30;2.00;;;;;;;3.88;54.00;94723.06;4966347;28;20292;-64
2022/04/04 07:54:05;;;;;;;3.90;2.00;;;;;;;3.98;50.98;94717.44;4966709;28;20210;-63
2022/04/04 07:56:53;;;;;;;4.43;2.43;;;;;;;4.10;50.68;94724.13;4949749;28;20272;-63
2022/04/04 07:59:39;;;;;;;2.67;2.20;;;;;;;4.09;49.10;94731.47;4964637;28;20279;-62
2022/04/04 08:02:25;;;;;;;4.37;2.47;;;;;;;4.29;47.76;94715.97;4971130;28;20301;-62
2022/04/04 08:05:11;;;;;;;3.83;2.23;;;;;;;3.67;50.45;94719.63;4970940;28;20205;-65
2022/04/04 08:07:57;;;;;;;2.97;2.67;;;;;;;3.37;52.98;94721.78;4962876;28;20606;-65
2022/04/04 08:10:43;;;;;;;3.17;2.50;;;;;;;3.94;51.36;94718.72;4960453;28;20197;-65
2022/04/04 08:13:30;;;;;;;3.10;2.80;;;;;;;3.65;52.44;94716.59;4969254;28;20189;-65
2022/04/04 08:16:16;;;;;;;3.33;2.37;;;;;;;3.86;50.89;94715.38;4960950;28;20190;-65
2022/04/04 08:19:02;;;;;;;7.63;2.87;;;;;;;4.30;50.76;94706.69;4959838;28;20219;-65
2022/04/04 08:21:48;;;;;;;5.37;2.80;;;;;;;3.97;50.33;94710.50;4946152;28;20198;-65
2022/04/04 08:24:34;;;;;;;4.40;2.70;;;;;;;4.20;50.32;94707.69;4956865;28;20311;-65
2022/04/04 08:27:22;;;;;;;6.40;3.00;;;;;;;4.27;50.54;94690.53;4948100;28;20235;-65
2022/04/04 08:30:13;;;;;;;4.27;2.50;;;;;;;4.41;49.38;94698.34;4964700;28;20582;-65
2022/04/04 08:32:59;;;;;;;5.50;2.87;;;;;;;4.14;49.69;94706.66;4968520;28;20201;-66
2022/04/04 08:35:45;;;;;;;5.13;3.23;;;;;;;4.56;49.87;94700.28;4954075;28;20186;-66
2022/04/04 08:38:31;;;;;;;7.70;2.57;;;;;;;5.10;49.25;94703.16;4953892;28;20209;-66
2022/04/04 08:41:18;;;;;;;2.97;2.63;;;;;;;5.68;47.33;94687.66;4967605;28;20196;-66
2022/04/04 08:44:05;;;;;;;3.37;3.07;;;;;;;5.58;47.37;94683.28;4974975;28;20215;-66
2022/04/04 08:46:51;;;;;;;6.40;3.00;;;;;;;6.27;45.47;94689.78;4966910;28;20229;-67
2022/04/04 08:49:39;;;;;;;4.13;3.00;;;;;;;6.41;45.37;94684.69;4969209;28;20220;-66
2022/04/04 08:52:27;;;;;;;3.30;3.00;;;;;;;6.35;45.41;94682.94;4963479;28;20202;-66
2022/04/04 08:55:15;;;;;;;3.60;3.20;;;;;;;5.78;47.92;94679.22;4951248;28;20201;-66
2022/04/04 08:58:02;;;;;;;4.43;3.23;;;;;;;6.22;47.39;94682.19;4963403;28;20267;-66
2022/04/04 09:00:48;;;;;;;3.67;3.20;;;;;;;6.48;46.64;94676.31;4951673;28;20200;-66
2022/04/04 09:03:34;;;;;;;4.73;2.90;;;;;;;5.75;46.68;94676.59;4966721;28;20193;-66
2022/04/04 09:06:20;;;;;;;4.53;3.93;;;;;;;5.16;48.94;94670.94;4961101;28;20198;-66
2022/04/04 09:09:06;;;;;;;4.03;3.63;;;;;;;5.14;49.13;94678.72;4955339;28;20204;-66
2022/04/04 09:12:13;;;;;;;4.00;3.60;;;;;;;4.97;50.54;94671.81;4968036;28;20193;-66
2022/04/04 09:14:59;;;;;;;7.67;4.00;;;;;;;4.75;50.96;94672.34;4965711;28;20289;-66
2022/04/04 09:17:46;;;;;;;5.90;3.93;;;;;;;5.41;49.91;94671.00;4961040;28;20217;-66
2022/04/04 09:20:32;;;;;;;6.13;3.83;;;;;;;7.17;47.62;94656.16;4947827;28;20251;-65
2022/04/04 09:23:18;;;;;;;5.17;3.80;;;;;;;6.58;46.37;94655.47;4953408;28;20616;-66
2022/04/04 09:26:05;;;;;;;4.20;3.80;;;;;;;6.21;48.11;94665.16;4949369;28;20911;-66
2022/04/04 09:28:51;;;;;;;3.80;3.40;;;;;;;6.52;47.10;94651.78;4965608;28;20193;-65
2022/04/04 09:32:05;;;;;;;7.20;3.53;;;;;;;6.75;45.74;94646.75;4953965;28;20259;-66
2022/04/04 09:34:53;;;;;;;6.97;4.43;;;;;;;7.23;46.24;94654.41;4948472;28;20196;-66
2022/04/04 09:37:42;;;;;;;5.27;4.30;;;;;;;6.62;45.16;94639.84;4964040;28;20325;-66
2022/04/04 09:40:35;;;;;;;4.23;3.80;;;;;;;7.43;44.38;94648.66;4966547;28;20201;-64
2022/04/04 09:43:21;;;;;;;4.33;3.90;;;;;;;7.40;44.70;94641.38;4930793;28;20236;-66
2022/04/04 09:46:11;;;;;;;4.90;3.87;;;;;;;6.68;46.66;94641.56;4942230;28;20647;-67
2022/04/04 09:49:03;;;;;;;7.20;3.80;;;;;;;6.42;48.76;94623.81;4959673;28;21498;-67
2022/04/04 09:51:54;;;;;;;4.83;4.10;;;;;;;5.73;48.15;94630.97;4959838;28;20637;-64
2022/04/04 09:54:42;;;;;;;7.07;4.47;;;;;;;5.62;48.48;94627.03;4951203;28;20205;-68
2022/04/04 09:57:30;;;;;;;4.73;4.33;;;;;;;5.15;50.49;94628.78;4952879;28;20243;-67
2022/04/04 10:00:19;;;;;;;5.00;4.03;;;;;;;6.04;49.72;94614.97;4948280;28;20213;-66
2022/04/04 10:03:12;;;;;;;6.40;4.13;;;;;;;5.69;49.16;94616.00;4953556;28;20223;-66
2022/04/04 10:06:09;;;;;;;4.73;3.90;;;;;;;4.78;52.07;94612.00;4950505;28;20221;-66
2022/04/04 10:09:00;;;;;;;5.17;4.10;;;;;;;5.26;51.51;94610.31;4959877;28;20215;-66
2022/04/04 10:11:47;;;;;;;5.03;3.83;;;;;;;5.60;50.91;94599.66;4958898;28;20201;-66
2022/04/04 10:14:35;;;;;;;5.47;4.63;;;;;;;6.40;50.85;94601.78;4951668;28;20267;-67
2022/04/04 10:17:21;;;;;;;5.63;4.33;;;;;;;6.58;49.56;94596.56;4948205;28;20237;-66
2022/04/04 10:20:08;;;;;;;6.47;4.83;;;;;;;6.28;50.27;94594.44;4964969;28;20196;-67
2022/04/04 10:22:54;;;;;;;5.97;4.80;;;;;;;5.55;50.21;94590.09;4936545;28;20197;-67
2022/04/04 10:25:41;;;;;;;4.93;4.30;;;;;;;4.95;52.68;94589.09;4954587;28;20244;-67
2022/04/04 10:28:32;;;;;;;5.77;4.43;;;;;;;5.11;53.62;94587.53;4959333;28;20309;-67
2022/04/04 10:31:21;;;;;;;6.57;4.30;;;;;;;5.51;53.72;94572.44;4966975;28;20205;-65
2022/04/04 10:34:13;;;;;;;5.40;4.90;;;;;;;5.27;52.82;94573.91;4939916;28;20297;-66
2022/04/04 10:37:07;;;;;;;4.87;4.47;;;;;;;6.59;51.03;94556.59;4964258;28;20213;-67
2022/04/04 10:39:53;;;;;;;5.37;4.70;;;;;;;5.71;52.32;94564.88;4966148;28;20209;-67
2022/04/04 10:42:41;;;;;;;4.87;4.23;;;;;;;6.47;52.81;94560.88;4964461;28;20317;-64
2022/04/04 10:45:29;;;;;;;5.03;4.33;;;;;;;5.51;51.88;94564.31;4941983;28;20668;-64
2022/04/04 10:48:18;;;;;;;5.60;4.23;;;;;;;5.18;54.04;94549.44;4941050;28;20221;-65
2022/04/04 10:51:17;;;;;;;6.60;4.80;;;;;;;5.43;53.62;94544.81;4964616;28;20224;-65
2022/04/04 10:54:09;;;;;;;5.53;4.80;;;;;;;5.73;54.95;94538.09;4935207;28;20754;-65
2022/04/04 10:56:58;;;;;;;5.73;4.63;;;;;;;6.32;52.46;94521.88;4948994;28;20359;-66
2022/04/04 10:59:46;;;;;;;6.63;4.70;;;;;;;7.21;49.76;94529.13;4931982;28;20202;-66
2022/04/04 11:02:33;;;;;;;5.67;4.60;;;;;;;6.04;52.34;94530.94;4961292;28;20197;-65
2022/04/04 11:08:33;;;;;;;5.47;4.97;;;;;;;5.63;55.19;94520.22;4968902;28;20233;-64
2022/04/04 11:11:44;;;;;;;5.10;4.60;;;;;;;5.65;55.60;94523.25;4937531;28;20954;-64
2022/04/04 11:14:31;;;;;;;6.40;5.10;;;;;;;4.87;55.23;94524.78;4950398;28;20205;-64
2022/04/04 11:17:19;;;;;;;6.93;5.40;;;;;;;4.91;57.35;94523.53;4958273;28;20327;-64
2022/04/04 11:20:31;;;;;;;5.50;5.00;;;;;;;6.03;59.45;94513.16;4953279;28;20204;-66
2022/04/04 11:23:17;;;;;;;5.60;4.90;;;;;;;6.28;56.90;94502.22;4952472;29;20288;-66
2022/04/04 11:26:04;;;;;;;5.30;4.80;;;;;;;5.54;55.84;94503.84;4966271;28;20263;-66
2022/04/04 11:28:51;;;;;;;6.70;5.87;;;;;;;5.71;58.84;94508.72;4964788;28;20705;-66
2022/04/04 11:31:47;;;;;;;5.63;4.80;;;;;;;6.94;58.36;94485.53;4971820;28;20611;-66
2022/04/04 11:34:37;;;;;;;6.90;5.67;;;;;;;5.46;55.28;94480.91;4956650;28;20903;-66
2022/04/04 11:37:24;;;;;;;6.27;5.67;;;;;;;6.21;56.96;94478.06;4968806;28;20213;-66
2022/04/04 11:40:14;;;;;;;6.50;5.80;;;;;;;5.87;57.51;94486.94;4965218;28;20201;-67
2022/04/04 11:43:04;;;;;;;6.07;5.47;;;;;;;5.49;58.63;94478.09;4972218;28;20197;-66
2022/04/04 11:45:52;;;;;;;6.80;5.90;;;;;;;4.87;59.07;94468.75;4958537;28;20220;-66
2022/04/04 11:48:54;;;;;;;10.80;6.10;;;;;;;4.46;60.99;94468.00;4939935;28;20204;-66
2022/04/04 11:51:41;;;;;;;6.57;5.87;;;;;;;4.87;62.01;94459.84;4956836;28;20682;-66
2022/04/04 11:54:37;;;;;;;8.10;6.70;;;;;;;5.71;60.71;94457.25;4937163;29;20260;-66
2022/04/04 11:57:24;;;;;;;7.87;6.50;;;;;;;5.63;60.20;94455.22;4950640;28;20624;-65
2022/04/04 12:00:11;;;;;;;7.93;6.40;;;;;;;5.33;61.38;94448.41;4960132;28;20197;-65
2022/04/04 12:03:17;;;;;;;8.30;6.47;;;;;;;5.28;62.48;94438.13;4971254;28;20466;-65
2022/04/04 12:06:06;;;;;;;6.17;5.57;;;;;;;5.15;61.60;94440.09;4954337;28;20700;-65
2022/04/04 12:08:53;;;;;;;7.50;6.70;;;;;;;4.70;63.38;94437.56;4963227;28;20190;-65
2022/04/04 12:11:39;;;;;;;8.47;6.93;;;;;;;4.55;62.44;94436.44;4951066;28;20200;-65
2022/04/04 12:14:30;;;;;;;7.17;6.30;;;;;;;4.81;65.22;94438.00;4969232;28;20212;-65
2022/04/04 12:17:24;;;;;;;10.33;6.67;;;;;;;4.83;62.34;94422.13;4967703;28;20229;-62
2022/04/04 12:20:11;;;;;;;7.47;6.07;;;;;;;5.45;63.27;94420.56;4936779;28;20269;-62
2022/04/04 12:26:04;;;;;;;6.90;6.10;;;;;;;4.76;64.01;94414.19;4949890;28;20522;-62
2022/04/04 12:28:50;;;;;;;8.83;6.73;;;;;;;5.30;65.00;94405.19;4961768;28;20391;-63
2022/04/04 12:31:35;;;;;;;7.97;6.23;;;;;;;4.36;65.77;94402.22;4954184;28;20201;-62
2022/04/04 12:34:23;;;;;;;6.97;6.27;;;;;;;4.88;67.29;94394.53;4952802;28;20672;-63
2022/04/04 12:37:09;;;;;;;9.63;6.83;;;;;;;5.71;65.36;94386.81;4968569;28;20682;-62
2022/04/04 12:40:21;;;;;;;7.30;6.30;;;;;;;5.80;65.53;94372.59;4963407;28;20201;-63
2022/04/04 12:43:09;;;;;;;7.17;6.47;;;;;;;5.51;63.94;94377.44;4952063;28;20285;-64
2022/04/04 12:45:55;;;;;;;9.27;7.30;;;;;;;5.46;65.03;94372.59;4940314;28;20197;-64
2022/04/04 12:48:41;;;;;;;8.40;7.17;;;;;;;4.87;65.57;94373.28;4949335;28;20189;-64
2022/04/04 12:51:29;;;;;;;7.10;6.40;;;;;;;5.22;66.63;94379.56;4967885;28;20240;-63
2022/04/04 12:54:27;;;;;;;7.33;6.63;;;;;;;4.91;66.00;94363.13;4940385;28;20206;-63
2022/04/04 12:57:25;;;;;;;8.50;7.27;;;;;;;5.06;65.84;94358.78;4939303;28;20213;-63
2022/04/04 13:00:23;;;;;;;8.37;7.53;;;;;;;4.63;67.28;94353.91;4941018;28;20638;-64
2022/04/04 13:03:25;;;;;;;7.87;6.93;;;;;;;4.78;68.07;94338.78;4965111;28;20255;-64
2022/04/04 13:06:11;;;;;;;10.43;7.20;;;;;;;5.15;68.02;94347.28;4947493;28;20201;-66
2022/04/04 13:09:03;;;;;;;11.20;7.40;;;;;;;4.97;68.64;94337.06;4950341;28;20958;-66
2022/04/04 13:11:49;;;;;;;9.90;7.20;;;;;;;5.42;67.47;94320.50;4946456;28;20220;-66
2022/04/04 13:14:49;;;;;;;10.70;7.47;;;;;;;5.66;65.84;94314.25;4945478;28;20249;-66